Time;durP1;ratioP1;P1;durP2;ratioP2;P2;SDS_P1;SDS_P2;PMS_P1;PMS_P2;Temp;Humidity;BMP_temperature;BMP_pressure;BME280_temperature;BME280_humidity;BME280_pressure;Samples;Min_cycle;Max_cycle;Signal;HPM_P1;HPM_P2
2023/01/11 00:00:57;;;;;;;;;;;;;;;9.48;100.00;100736.22;5088036;28;20440;-55
2023/01/11 00:03:23;;;;;;;;;;;;;;;9.51;100.00;100741.44;5084871;28;19920;-55
2023/01/11 00:05:48;;;;;;;;;;;;;;;9.53;100.00;100737.25;5083491;28;19916;-55
2023/01/11 00:08:13;;;;;;;;;;;;;;;9.54;100.00;100738.97;5088346;28;19916;-51
2023/01/11 00:10:38;;;;;;;;;;;;;;;9.57;100.00;100741.63;5085344;28;19947;-55
2023/01/11 00:13:04;;;;;;;;;;;;;;;9.59;100.00;100731.44;5082798;28;19953;-53
2023/01/11 00:15:29;;;;;;;;;;;;;;;9.59;100.00;100721.16;5081385;28;19920;-55
2023/01/11 00:17:56;;;;;;;;;;;;;;;9.61;100.00;100719.50;5084248;28;20018;-53
2023/01/11 00:20:21;;;;;;;;;;;;;;;9.63;100.00;100711.00;5080551;28;19931;-53
2023/01/11 00:22:47;;;;;;;;;;;;;;;9.65;100.00;100708.50;5086337;28;20276;-55
2023/01/11 00:25:12;;;;;;;;;;;;;;;9.67;100.00;100709.41;5082899;28;19917;-54
2023/01/11 00:27:37;;;;;;;;;;;;;;;9.68;100.00;100709.44;5087614;28;20300;-54
2023/01/11 00:30:03;;;;;;;;;;;;;;;9.71;100.00;100705.22;5081376;28;19916;-55
2023/01/11 00:32:28;;;;;;;;;;;;;;;9.73;100.00;100711.28;5072660;28;19923;-51
2023/01/11 00:34:53;;;;;;;;;;;;;;;9.74;100.00;100701.03;5081228;28;19969;-53
2023/01/11 00:37:19;;;;;;;;;;;;;;;9.75;100.00;100696.78;5083323;28;19916;-48
2023/01/11 00:39:44;;;;;;;;;;;;;;;9.79;100.00;100698.63;5084086;28;19931;-54
2023/01/11 00:47:56;;;;;;;;;;;;;;;9.82;100.00;100709.84;5083628;28;19922;-55
2023/01/11 00:50:21;;;;;;;;;;;;;;;9.83;100.00;100703.03;5083650;28;20001;-50
2023/01/11 00:52:46;;;;;;;;;;;;;;;9.84;100.00;100692.78;5087118;28;20030;-54
2023/01/11 00:55:11;;;;;;;;;;;;;;;9.85;100.00;100693.66;5081168;28;19982;-49
2023/01/11 00:57:37;;;;;;;;;;;;;;;9.85;100.00;100697.09;5082303;28;19923;-52
2023/01/11 01:00:03;;;;;;;;;;;;;;;9.88;100.00;100701.44;5084965;28;19922;-52
2023/01/11 01:02:30;;;;;;;;;;;;;;;9.87;100.00;100692.00;5083356;28;20005;-55
2023/01/11 01:04:55;;;;;;;;;;;;;;;9.88;100.00;100691.16;5087970;28;19911;-50
2023/01/11 01:07:21;;;;;;;;;;;;;;;9.89;100.00;100682.66;5089767;27;19924;-50
2023/01/11 01:09:46;;;;;;;;;;;;;;;9.90;100.00;100681.81;5082833;28;19924;-55
2023/01/11 01:14:24;;;;;;;;;;;;;;;9.91;100.00;100686.13;5079661;28;19921;-55
2023/01/11 01:14:56;;;;;;;;;;;;;;;9.92;100.00;100687.84;5081450;28;19924;-55
2023/01/11 01:17:22;;;;;;;;;;;;;;;9.93;100.00;100690.47;5082214;28;19916;-53
2023/01/11 01:19:47;;;;;;;;;;;;;;;9.93;100.00;100698.16;5083409;28;19931;-51
2023/01/11 01:22:12;;;;;;;;;;;;;;;9.95;100.00;100705.94;5082423;28;19915;-54
2023/01/11 01:24:37;;;;;;;;;;;;;;;9.95;100.00;100700.81;5080873;28;19912;-55
2023/01/11 01:27:02;;;;;;;;;;;;;;;9.96;100.00;100704.25;5076936;28;19915;-53
2023/01/11 01:29:28;;;;;;;;;;;;;;;9.97;100.00;100696.56;5082820;28;19912;-53
2023/01/11 01:31:53;;;;;;;;;;;;;;;9.98;100.00;100695.72;5077811;28;19927;-53
2023/01/11 01:34:18;;;;;;;;;;;;;;;9.99;100.00;100691.47;5082729;28;19959;-54
2023/01/11 01:36:43;;;;;;;;;;;;;;;9.99;100.00;100689.75;5078999;28;19916;-55
2023/01/11 01:39:09;;;;;;;;;;;;;;;10.01;100.00;100692.38;5075703;28;19964;-52
2023/01/11 01:41:34;;;;;;;;;;;;;;;10.04;100.00;100700.16;5078676;28;20007;-55
2023/01/11 01:44:01;;;;;;;;;;;;;;;10.02;100.00;100692.44;5077499;28;20319;-54
2023/01/11 01:46:28;;;;;;;;;;;;;;;10.03;100.00;100688.16;5078357;28;19912;-50
2023/01/11 01:48:56;;;;;;;;;;;;;;;10.04;100.00;100693.34;5081771;28;19959;-52
2023/01/11 01:51:25;;;;;;;;;;;;;;;10.06;100.00;100686.53;5083475;28;20266;-53
2023/01/11 01:53:53;;;;;;;;;;;;;;;10.07;100.00;100693.44;5078389;28;19915;-52
2023/01/11 01:56:22;;;;;;;;;;;;;;;10.09;100.00;100696.03;5079228;28;20012;-55
2023/01/11 01:58:52;;;;;;;;;;;;;;;10.08;100.00;100690.03;5084042;28;19931;-53
2023/01/11 02:04:08;;;;;;;;;;;;;;;10.13;100.00;100685.00;5082088;28;20422;-56
2023/01/11 02:06:33;;;;;;;;;;;;;;;10.16;100.00;100685.09;5081965;28;19943;-53
2023/01/11 02:09:02;;;;;;;;;;;;;;;10.15;100.00;100684.22;5080098;28;20377;-54
2023/01/11 02:11:30;;;;;;;;;;;;;;;10.17;100.00;100680.00;5086260;28;19916;-55
2023/01/11 02:13:57;;;;;;;;;;;;;;;10.18;100.00;100676.59;5074268;28;19935;-55
2023/01/11 02:16:22;;;;;;;;;;;;;;;10.21;100.00;100681.81;5077981;28;19912;-53
2023/01/11 02:18:47;;;;;;;;;;;;;;;10.22;100.00;100680.13;5082707;28;20337;-53
2023/01/11 02:21:31;;;;;;;;;;;;;;;10.23;100.00;100680.97;5077769;28;19924;-55
2023/01/11 02:24:08;;;;;;;;;;;;;;;10.24;100.00;100675.91;5080728;28;19912;-53
2023/01/11 02:26:48;;;;;;;;;;;;;;;10.26;100.00;100689.69;5085328;28;20403;-52
2023/01/11 02:29:16;;;;;;;;;;;;;;;10.27;100.00;100681.16;5080163;28;19920;-51
2023/01/11 02:31:50;;;;;;;;;;;;;;;10.28;100.00;100679.44;5083329;28;20403;-53
2023/01/11 02:34:29;;;;;;;;;;;;;;;10.30;100.00;100688.06;5077835;28;19951;-54
2023/01/11 02:37:13;;;;;;;;;;;;;;;10.31;100.00;100679.50;5081604;28;19920;-54
2023/01/11 02:39:44;;;;;;;;;;;;;;;10.32;100.00;100673.56;5081963;28;19915;-55
2023/01/11 02:45:18;;;;;;;;;;;;;;;10.36;100.00;100672.78;5080022;28;19927;-55
2023/01/11 02:47:52;;;;;;;;;;;;;;;10.38;100.00;100679.72;5074804;28;20277;-55
2023/01/11 02:50:25;;;;;;;;;;;;;;;10.38;100.00;100663.44;5081255;28;19912;-55
2023/01/11 02:53:15;;;;;;;;;;;;;;;10.39;100.00;100663.47;5082927;28;20288;-55
2023/01/11 02:55:42;;;;;;;;;;;;;;;10.41;100.00;100676.34;5084054;28;19998;-55
2023/01/11 02:58:09;;;;;;;;;;;;;;;10.42;100.00;100668.69;5081958;28;20250;-55
2023/01/11 03:00:39;;;;;;;;;;;;;;;10.44;100.00;100668.75;5087566;28;20724;-54
2023/01/11 03:03:16;;;;;;;;;;;;;;;10.45;100.00;100668.78;5086735;28;20367;-48
2023/01/11 03:06:01;;;;;;;;;;;;;;;10.47;100.00;100668.81;5087349;28;19963;-54
2023/01/11 03:08:29;;;;;;;;;;;;;;;10.48;100.00;100673.09;5088019;28;19926;-55
2023/01/11 03:10:55;;;;;;;;;;;;;;;10.49;100.00;100669.69;5084321;28;20515;-54
2023/01/11 03:13:32;;;;;;;;;;;;;;;10.50;100.00;100668.91;5086283;28;20002;-55
2023/01/11 03:16:11;;;;;;;;;;;;;;;10.52;100.00;100662.06;5083613;28;19926;-55
2023/01/11 03:18:44;;;;;;;;;;;;;;;10.53;100.00;100668.09;5086279;28;19926;-55
2023/01/11 03:21:21;;;;;;;;;;;;;;;10.54;100.00;100662.97;5081079;28;19951;-52
2023/01/11 03:23:52;;;;;;;;;;;;;;;10.56;100.00;100661.34;5082168;28;19911;-55
2023/01/11 03:26:17;;;;;;;;;;;;;;;10.56;100.00;100663.91;5087755;28;20382;-55
2023/01/11 03:28:42;;;;;;;;;;;;;;;10.58;100.00;100661.38;5083576;28;19912;-49
2023/01/11 03:31:16;;;;;;;;;;;;;;;10.59;100.00;100657.97;5089260;28;19926;-56
2023/01/11 03:33:44;;;;;;;;;;;;;;;10.61;100.00;100658.84;5083164;28;19912;-54
2023/01/11 03:36:12;;;;;;;;;;;;;;;10.61;100.00;100664.00;5086753;28;19916;-52
2023/01/11 03:38:37;;;;;;;;;;;;;;;10.62;100.00;100661.47;5085777;28;19926;-55
2023/01/11 03:41:09;;;;;;;;;;;;;;;10.63;100.00;100662.34;5085747;28;19916;-54
2023/01/11 03:43:37;;;;;;;;;;;;;;;10.65;100.00;100664.13;5081429;28;20435;-54
2023/01/11 03:46:02;;;;;;;;;;;;;;;10.66;100.00;100665.84;5086881;28;19919;-52
2023/01/11 03:48:30;;;;;;;;;;;;;;;10.66;100.00;100670.13;5082547;28;19920;-54
2023/01/11 03:50:56;;;;;;;;;;;;;;;10.68;100.00;100671.91;5087275;28;19927;-55
2023/01/11 03:53:23;;;;;;;;;;;;;;;10.68;100.00;100666.78;5086032;28;20393;-49
2023/01/11 03:55:51;;;;;;;;;;;;;;;10.70;100.00;100662.53;5086501;28;19916;-53
2023/01/11 03:58:17;;;;;;;;;;;;;;;10.72;100.00;100675.41;5081491;28;20327;-53
2023/01/11 04:00:42;;;;;;;;;;;;;;;10.71;100.00;100677.13;5082025;28;20006;-53
2023/01/11 04:03:11;;;;;;;;;;;;;;;10.73;100.00;100679.72;5085970;28;21536;-52
2023/01/11 04:05:37;;;;;;;;;;;;;;;10.76;100.00;100674.66;5065856;28;20586;-55
2023/01/11 04:08:03;;;;;;;;;;;;;;;10.75;100.00;100672.94;5080463;28;20304;-53
2023/01/11 04:10:28;;;;;;;;;;;;;;;10.74;100.00;100679.78;5080111;28;19923;-55
2023/01/11 04:12:53;;;;;;;;;;;;;;;10.77;100.00;100675.53;5081453;28;19928;-51
2023/01/11 04:15:18;;;;;;;;;;;;;;;10.78;100.00;100679.84;5081270;28;20299;-56
2023/01/11 04:17:44;;;;;;;;;;;;;;;10.78;100.00;100678.13;5083796;28;19931;-55
2023/01/11 04:20:09;;;;;;;;;;;;;;;10.80;100.00;100696.16;5084559;28;19931;-51
2023/01/11 04:22:34;;;;;;;;;;;;;;;10.79;100.00;100685.00;5084332;28;19961;-55
2023/01/11 04:25:00;;;;;;;;;;;;;;;10.81;100.00;100687.66;5084384;28;19919;-52
2023/01/11 04:27:25;;;;;;;;;;;;;;;10.81;100.00;100680.78;5087199;28;19961;-55
2023/01/11 04:29:50;;;;;;;;;;;;;;;10.84;100.00;100690.28;5082752;28;19927;-51
2023/01/11 04:32:15;;;;;;;;;;;;;;;10.84;100.00;100693.72;5086012;28;19932;-56
2023/01/11 04:34:41;;;;;;;;;;;;;;;10.84;100.00;100680.00;5081103;28;20273;-52
2023/01/11 04:37:06;;;;;;;;;;;;;;;10.86;100.00;100693.75;5079349;28;19916;-51
2023/01/11 04:39:31;;;;;;;;;;;;;;;10.86;100.00;100691.16;5081522;28;19944;-55
2023/01/11 04:44:40;;;;;;;;;;;;;;;10.89;100.00;100688.69;5084555;28;20579;-55
2023/01/11 04:47:06;;;;;;;;;;;;;;;10.90;100.00;100693.00;5082561;28;19917;-55
2023/01/11 04:49:31;;;;;;;;;;;;;;;10.91;100.00;100694.72;5086026;28;20023;-52
2023/01/11 04:51:56;;;;;;;;;;;;;;;10.93;100.00;100708.53;5075224;28;19992;-54
2023/01/11 04:54:21;;;;;;;;;;;;;;;10.92;100.00;100707.66;5085883;28;20389;-55
2023/01/11 04:56:46;;;;;;;;;;;;;;;10.95;100.00;100715.44;5083487;28;19916;-51
2023/01/11 04:59:12;;;;;;;;;;;;;;;10.95;100.00;100718.00;5087067;28;19911;-53
2023/01/11 05:01:38;;;;;;;;;;;;;;;10.95;100.00;100714.56;5085880;28;20316;-55
2023/01/11 05:04:03;;;;;;;;;;;;;;;10.96;100.00;100711.16;5084933;28;19922;-54
2023/01/11 05:06:28;;;;;;;;;;;;;;;10.98;100.00;100717.19;5079398;28;19955;-55
2023/01/11 05:08:53;;;;;;;;;;;;;;;10.99;100.00;100716.38;5081848;28;19919;-55
2023/01/11 05:11:19;;;;;;;;;;;;;;;11.00;100.00;100715.53;5082994;28;19922;-55
2023/01/11 05:13:44;;;;;;;;;;;;;;;10.99;100.00;100714.69;5082846;28;19930;-55
2023/01/11 05:16:16;;;;;;;;;;;;;;;10.99;100.00;100726.69;5082497;28;19986;-54
2023/01/11 05:18:43;;;;;;;;;;;;;;;11.00;100.00;100725.84;5085862;28;20356;-53
2023/01/11 05:21:09;;;;;;;;;;;;;;;11.01;100.00;100732.72;5083200;28;19985;-50
2023/01/11 05:23:35;;;;;;;;;;;;;;;11.01;100.00;100741.31;5084389;28;19947;-55
2023/01/11 05:26:02;;;;;;;;;;;;;;;11.01;100.00;100735.28;5082384;28;20035;-55
2023/01/11 05:28:27;;;;;;;;;;;;;;;11.03;100.00;100736.19;5083998;28;19955;-52
2023/01/11 05:30:52;;;;;;;;;;;;;;;11.03;100.00;100736.19;5082356;28;20444;-53
2023/01/11 05:33:18;;;;;;;;;;;;;;;11.03;100.00;100738.75;5081822;28;20621;-55
2023/01/11 05:35:43;;;;;;;;;;;;;;;11.04;100.00;100739.63;5085363;28;19924;-54
2023/01/11 05:38:08;;;;;;;;;;;;;;;11.03;100.00;100741.34;5083993;28;19919;-52
2023/01/11 05:40:33;;;;;;;;;;;;;;;11.04;100.00;100737.06;5098787;27;20187;-52
2023/01/11 05:42:59;;;;;;;;;;;;;;;11.06;100.00;100745.69;5080605;28;19924;-52
2023/01/11 05:45:34;;;;;;;;;;;;;;;11.03;100.00;100738.75;5081403;28;19923;-54
2023/01/11 05:48:00;;;;;;;;;;;;;;;11.02;100.00;100742.19;5082258;28;20010;-51
2023/01/11 05:50:25;;;;;;;;;;;;;;;11.02;100.00;100749.88;5080900;28;20440;-53
2023/01/11 05:52:51;;;;;;;;;;;;;;;11.02;100.00;100749.88;5083802;28;19941;-52
2023/01/11 05:55:16;;;;;;;;;;;;;;;11.03;100.00;100751.63;5084219;28;19919;-56
2023/01/11 05:57:42;;;;;;;;;;;;;;;11.03;100.00;100756.78;5077281;28;19924;-51
2023/01/11 06:00:08;;;;;;;;;;;;;;;11.04;100.00;100758.50;5080814;28;20327;-48
2023/01/11 06:02:33;;;;;;;;;;;;;;;11.02;100.00;100766.19;5078318;28;19947;-52
2023/01/11 06:04:58;;;;;;;;;;;;;;;10.99;100.00;100767.84;5083080;28;19912;-54
2023/01/11 06:07:24;;;;;;;;;;;;;;;10.99;100.00;100762.69;5084581;28;19931;-54
2023/01/11 06:09:49;;;;;;;;;;;;;;;10.97;100.00;100767.78;5084460;28;19919;-54
2023/01/11 06:12:15;;;;;;;;;;;;;;;10.98;100.00;100774.69;5085170;28;19962;-51
2023/01/11 06:14:40;;;;;;;;;;;;;;;10.97;100.00;100775.50;5083704;28;19924;-55
2023/01/11 06:17:05;;;;;;;;;;;;;;;10.95;100.00;100779.75;5086368;28;19923;-49
2023/01/11 06:19:30;;;;;;;;;;;;;;;10.94;100.00;100775.44;5100931;27;19920;-50
2023/01/11 06:21:55;;;;;;;;;;;;;;;10.92;100.00;100781.34;5090249;28;19930;-51
2023/01/11 06:24:21;;;;;;;;;;;;;;;10.91;100.00;100789.91;5086179;28;19915;-50
2023/01/11 06:26:46;;;;;;;;;;;;;;;10.91;100.00;100797.63;5085452;28;20007;-54
2023/01/11 06:29:13;;;;;;;;;;;;;;;10.90;100.00;100799.34;5085192;28;20344;-54
2023/01/11 06:31:38;;;;;;;;;;;;;;;10.90;100.00;100808.75;5086968;28;19924;-54
2023/01/11 06:34:04;;;;;;;;;;;;;;;10.88;100.00;100800.16;5093414;28;19912;-53
2023/01/11 06:36:29;;;;;;;;;;;;;;;10.88;100.00;100803.59;5084702;28;19930;-52
2023/01/11 06:38:54;;;;;;;;;;;;;;;10.87;100.00;100813.84;5090912;28;20279;-54
2023/01/11 06:41:19;;;;;;;;;;;;;;;10.85;100.00;100824.06;5089749;28;20020;-54
2023/01/11 06:43:45;;;;;;;;;;;;;;;10.84;100.00;100826.59;5091845;28;19916;-51
2023/01/11 06:46:12;;;;;;;;;;;;;;;10.84;100.00;100824.91;5087626;28;19975;-51
2023/01/11 06:48:37;;;;;;;;;;;;;;;10.83;100.00;100832.59;5078169;28;20361;-54
2023/01/11 06:51:02;;;;;;;;;;;;;;;10.82;100.00;100836.00;5089276;28;19934;-53
2023/01/11 06:53:28;;;;;;;;;;;;;;;10.82;100.00;100820.56;5083999;28;19919;-53
2023/01/11 06:55:54;;;;;;;;;;;;;;;10.82;100.00;100847.16;5091558;28;19926;-54
2023/01/11 06:58:21;;;;;;;;;;;;;;;10.81;100.00;100870.28;5080291;28;20292;-53
2023/01/11 07:00:46;;;;;;;;;;;;;;;10.78;100.00;100865.91;5088277;28;20376;-53
2023/01/11 07:03:14;;;;;;;;;;;;;;;10.79;100.00;100874.47;5088265;28;19950;-46
2023/01/11 07:05:41;;;;;;;;;;;;;;;10.79;100.00;100859.91;5090151;28;20395;-53
2023/01/11 07:08:06;;;;;;;;;;;;;;;10.78;100.00;100859.88;5087974;28;19956;-52
2023/01/11 07:10:31;;;;;;;;;;;;;;;10.79;100.00;100861.63;5086179;28;20355;-51
2023/01/11 07:12:56;;;;;;;;;;;;;;;10.77;100.00;100858.16;5088465;28;19977;-53
2023/01/11 07:15:22;;;;;;;;;;;;;;;10.78;100.00;100880.47;5083284;28;20400;-52
2023/01/11 07:17:52;;;;;;;;;;;;;;;10.76;100.00;100879.56;5085408;28;19919;-52
2023/01/11 07:20:17;;;;;;;;;;;;;;;10.74;100.00;100875.25;5090602;28;20284;-51
2023/01/11 07:22:42;;;;;;;;;;;;;;;10.73;100.00;100882.91;5087456;28;19923;-54
2023/01/11 07:25:07;;;;;;;;;;;;;;;10.74;100.00;100895.81;5099623;28;19958;-50
2023/01/11 07:27:33;;;;;;;;;;;;;;;10.73;100.00;100888.03;5086295;28;19924;-54
2023/01/11 07:30:01;;;;;;;;;;;;;;;10.71;100.00;100906.00;5080740;28;20357;-54
2023/01/11 07:32:27;;;;;;;;;;;;;;;10.70;100.00;100899.13;5069418;28;20014;-51
2023/01/11 07:34:52;;;;;;;;;;;;;;;10.68;100.00;100913.66;5085943;28;20006;-54
2023/01/11 07:37:18;;;;;;;;;;;;;;;10.67;100.00;100914.44;5091707;28;20274;-53
2023/01/11 07:39:43;;;;;;;;;;;;;;;10.67;100.00;100914.44;5086963;28;19916;-54
2023/01/11 07:44:53;;;;;;;;;;;;;;;10.64;100.00;100916.94;5091753;28;19923;-53
2023/01/11 07:47:18;;;;;;;;;;;;;;;10.64;100.00;100916.09;5090106;28;19920;-51
2023/01/11 07:49:44;;;;;;;;;;;;;;;10.63;100.00;100927.19;5094573;28;19915;-48
2023/01/11 07:52:09;;;;;;;;;;;;;;;10.61;100.00;100922.00;5085225;28;19923;-51
2023/01/11 07:54:35;;;;;;;;;;;;;;;10.59;100.00;100928.81;5090805;28;19968;-52
2023/01/11 07:57:00;;;;;;;;;;;;;;;10.60;100.00;100937.38;5086447;28;19951;-49
2023/01/11 07:59:25;;;;;;;;;;;;;;;10.59;100.00;100935.66;5092322;28;20375;-51
2023/01/11 08:01:50;;;;;;;;;;;;;;;10.57;99.05;100947.59;5090542;28;20013;-50
2023/01/11 08:04:16;;;;;;;;;;;;;;;10.54;98.95;100947.50;5086077;28;19962;-53
2023/01/11 08:06:41;;;;;;;;;;;;;;;10.54;99.48;100950.06;5094562;28;19912;-52
2023/01/11 08:09:08;;;;;;;;;;;;;;;10.54;99.22;100950.94;5094100;28;19916;-53
2023/01/11 08:17:01;;;;;;;;;;;;;;;10.45;97.76;100966.97;5090491;28;19922;-52
2023/01/11 08:19:26;;;;;;;;;;;;;;;10.45;98.00;100971.25;5088131;28;20003;-53
2023/01/11 08:21:51;;;;;;;;;;;;;;;10.44;98.64;100985.78;5090918;28;20326;-52
2023/01/11 08:24:17;;;;;;;;;;;;;;;10.44;98.03;100990.94;5087086;28;19958;-51
2023/01/11 08:26:43;;;;;;;;;;;;;;;10.43;97.42;101001.16;5088877;28;19915;-52
2023/01/11 08:29:08;;;;;;;;;;;;;;;10.40;97.27;101006.22;5071917;28;19908;-51
2023/01/11 08:31:33;;;;;;;;;;;;;;;10.39;97.73;101015.63;5102461;27;19981;-52
2023/01/11 08:33:58;;;;;;;;;;;;;;;10.40;97.27;101021.63;5095582;28;19907;-52
2023/01/11 08:36:26;;;;;;;;;;;;;;;10.38;97.26;101024.16;5088950;28;19927;-50
2023/01/11 08:38:57;;;;;;;;;;;;;;;10.38;97.81;101038.72;5092763;28;19916;-51
2023/01/11 08:41:23;;;;;;;;;;;;;;;10.38;97.79;101042.16;5091433;28;19974;-51
2023/01/11 08:43:49;;;;;;;;;;;;;;;10.38;97.18;101046.44;5090475;28;20307;-52
2023/01/11 08:46:14;;;;;;;;;;;;;;;10.35;96.25;101048.88;5092516;28;19923;-50
2023/01/11 08:48:39;;;;;;;;;;;;;;;10.34;96.81;101049.72;5068758;28;19977;-50
2023/01/11 08:51:05;;;;;;;;;;;;;;;10.33;97.32;101050.56;5093911;28;19920;-52
2023/01/11 08:53:30;;;;;;;;;;;;;;;10.32;97.46;101059.97;5093576;28;19920;-51
2023/01/11 08:55:55;;;;;;;;;;;;;;;10.32;97.38;101057.38;5089506;28;19973;-51
2023/01/11 08:58:20;;;;;;;;;;;;;;;10.34;97.41;101057.44;5092241;28;20379;-51
2023/01/11 09:00:46;;;;;;;;;;;;;;;10.35;96.83;101059.16;5085186;28;20367;-50
2023/01/11 09:03:12;;;;;;;;;;;;;;;10.31;95.91;101068.47;5086313;28;20272;-51
2023/01/11 09:05:37;;;;;;;;;;;;;;;10.30;96.49;101066.72;5086420;28;19927;-53
2023/01/11 09:08:03;;;;;;;;;;;;;;;10.26;96.38;101070.03;5093739;28;19908;-51
2023/01/11 09:10:28;;;;;;;;;;;;;;;10.25;96.40;101067.41;5090912;28;20019;-48
2023/01/11 09:12:54;;;;;;;;;;;;;;;10.25;96.47;101064.81;5090300;28;19946;-52
2023/01/11 09:15:19;;;;;;;;;;;;;;;10.25;95.47;101059.69;5090525;28;19912;-51
2023/01/11 09:17:47;;;;;;;;;;;;;;;10.23;95.88;101063.88;5086965;28;20105;-52
2023/01/11 09:20:13;;;;;;;;;;;;;;;10.23;96.48;101066.44;5097189;28;20006;-50
2023/01/11 09:22:38;;;;;;;;;;;;;;;10.19;95.53;101074.06;5083999;28;20003;-52
2023/01/11 09:25:04;;;;;;;;;;;;;;;10.19;96.25;101076.66;5090950;28;20383;-51
2023/01/11 09:27:29;;;;;;;;;;;;;;;10.21;95.79;101079.25;5084509;28;19977;-47
2023/01/11 09:29:55;;;;;;;;;;;;;;;10.18;95.69;101082.59;5093454;28;19959;-50
2023/01/11 09:32:20;;;;;;;;;;;;;;;10.20;95.70;101098.06;5101429;27;19911;-51
2023/01/11 09:34:48;;;;;;;;;;;;;;;10.20;95.63;101096.38;5081424;28;19916;-53
2023/01/11 09:37:13;;;;;;;;;;;;;;;10.21;95.30;101100.69;5094115;28;19908;-50
2023/01/11 09:39:40;;;;;;;;;;;;;;;10.22;95.66;101101.56;5093581;28;19953;-51
2023/01/11 09:42:16;;;;;;;;;;;;;;;10.28;95.98;101100.94;5092151;28;20377;-52
2023/01/11 09:44:53;;;;;;;;;;;;;;;10.43;96.34;101106.56;5083023;28;19912;-52
2023/01/11 09:47:35;;;;;;;;;;;;;;;10.57;94.69;101115.59;5091241;28;20368;-47
2023/01/11 09:50:02;;;;;;;;;;;;;;;10.71;94.97;101110.88;5092325;28;19930;-53
2023/01/11 09:52:28;;;;;;;;;;;;;;;10.88;94.82;101120.00;5086983;28;19927;-51
2023/01/11 09:54:54;;;;;;;;;;;;;;;11.01;94.75;101118.69;5090123;28;19919;-53
2023/01/11 09:57:31;;;;;;;;;;;;;;;11.16;92.95;101115.69;5082379;28;19916;-51
2023/01/11 10:00:05;;;;;;;;;;;;;;;11.24;93.45;101127.97;5087930;28;19920;-53
2023/01/11 10:02:44;;;;;;;;;;;;;;;11.34;94.03;101123.94;5086571;28;20328;-53
2023/01/11 10:05:17;;;;;;;;;;;;;;;11.48;93.11;101120.06;5086442;28;19923;-49
2023/01/11 10:07:53;;;;;;;;;;;;;;;11.58;91.50;101123.75;5083043;28;19962;-52
2023/01/11 10:10:28;;;;;;;;;;;;;;;11.68;91.24;101125.78;5092661;28;20006;-52
2023/01/11 10:13:12;;;;;;;;;;;;;;;11.82;92.20;101127.03;5091661;28;20372;-53
2023/01/11 10:15:52;;;;;;;;;;;;;;;11.97;92.35;101126.59;5087523;28;19923;-52
2023/01/11 10:18:34;;;;;;;;;;;;;;;12.14;91.38;101126.19;5085457;28;19964;-53
2023/01/11 10:21:10;;;;;;;;;;;;;;;12.30;90.45;101128.28;5089141;28;20376;-52
2023/01/11 10:23:40;;;;;;;;;;;;;;;12.43;89.35;101112.28;5094334;28;19915;-51
2023/01/11 10:26:15;;;;;;;;;;;;;;;12.53;89.96;101123.72;5070536;28;19949;-50
2023/01/11 10:29:01;;;;;;;;;;;;;;;12.63;88.92;101120.53;5088627;28;19938;-53
2023/01/11 10:31:43;;;;;;;;;;;;;;;12.80;89.03;101121.78;5083591;28;20332;-53
2023/01/11 10:34:35;;;;;;;;;;;;;;;12.92;87.08;101120.31;5090490;28;19915;-53
2023/01/11 10:38:01;;;;;;;;;;;;;;;13.04;87.10;101113.72;5088827;28;19909;-52
2023/01/11 10:42:50;;;;;;;;;;;;;;;13.44;86.60;101118.88;5089172;28;19916;-49
2023/01/11 10:45:17;;;;;;;;;;;;;;;13.73;85.63;101138.44;5086487;28;20343;-53
2023/01/11 10:48:02;;;;;;;;;;;;;;;13.94;82.98;101144.00;5091502;28;19919;-53
2023/01/11 10:50:47;;;;;;;;;;;;;;;14.14;82.04;101128.88;5081002;28;19920;-51
2023/01/11 10:53:13;;;;;;;;;;;;;;;14.32;82.46;101133.50;5083720;28;19923;-54
2023/01/11 10:55:42;;;;;;;;;;;;;;;14.53;81.11;101129.53;5083372;28;19918;-51
2023/01/11 10:58:08;;;;;;;;;;;;;;;14.73;81.35;101133.28;5084150;28;21515;-52
2023/01/11 11:00:39;;;;;;;;;;;;;;;14.92;80.89;101140.47;5082468;28;20476;-52
2023/01/11 11:03:07;;;;;;;;;;;;;;;14.92;75.09;101130.13;5081433;28;20253;-52
2023/01/11 11:05:51;;;;;;;;;;;;;;;14.88;76.90;101132.69;5081328;28;21351;-49
2023/01/11 11:08:25;;;;;;;;;;;;;;;14.77;72.62;101142.88;5081998;28;20426;-53
2023/01/11 11:11:07;;;;;;;;;;;;;;;14.66;75.85;101141.81;5082372;28;19923;-56
2023/01/11 11:13:48;;;;;;;;;;;;;;;14.60;78.46;101139.13;5085141;28;19922;-52
2023/01/11 11:16:19;;;;;;;;;;;;;;;14.56;77.51;101160.63;5082869;28;19911;-51
2023/01/11 11:18:44;;;;;;;;;;;;;;;14.46;73.55;101147.56;5089023;28;20380;-52
2023/01/11 11:21:15;;;;;;;;;;;;;;;14.37;75.50;101142.16;5086125;28;19964;-53
2023/01/11 11:23:41;;;;;;;;;;;;;;;14.27;73.39;101139.44;5087402;28;19919;-51
2023/01/11 11:26:06;;;;;;;;;;;;;;;14.12;75.00;101143.47;5088280;28;19920;-53
2023/01/11 11:28:32;;;;;;;;;;;;;;;14.03;74.06;101145.03;5090321;28;20334;-52
2023/01/11 11:31:04;;;;;;;;;;;;;;;13.93;71.80;101147.44;5095554;28;19922;-53
2023/01/11 11:33:34;;;;;;;;;;;;;;;13.80;73.29;101147.16;5093246;28;20420;-52
2023/01/11 11:36:06;;;;;;;;;;;;;;;13.70;72.99;101146.09;5090912;28;19919;-51
2023/01/11 11:38:33;;;;;;;;;;;;;;;13.61;72.99;101153.69;5092595;28;20418;-53
2023/01/11 11:41:12;;;;;;;;;;;;;;;13.55;73.26;101151.84;5091746;28;19951;-51
2023/01/11 11:43:38;;;;;;;;;;;;;;;13.44;71.65;101158.50;5089905;28;20391;-52
2023/01/11 11:46:18;;;;;;;;;;;;;;;13.35;73.60;101154.03;5089020;28;20289;-52
2023/01/11 11:48:43;;;;;;;;;;;;;;;13.33;74.35;101150.53;5089397;28;19920;-50
2023/01/11 11:51:19;;;;;;;;;;;;;;;13.34;74.56;101159.13;5090439;28;20378;-53
2023/01/11 11:53:53;;;;;;;;;;;;;;;13.35;74.44;101161.78;5089889;28;19924;-51
2023/01/11 11:56:24;;;;;;;;;;;;;;;13.33;72.22;101157.41;5090389;28;20595;-51
2023/01/11 11:58:50;;;;;;;;;;;;;;;13.27;72.50;101165.88;5086860;28;19916;-49
2023/01/11 12:01:23;;;;;;;;;;;;;;;13.25;73.40;101157.25;5086360;28;20407;-53
2023/01/11 12:03:49;;;;;;;;;;;;;;;13.25;73.81;101164.13;5087577;28;20277;-52
2023/01/11 12:06:20;;;;;;;;;;;;;;;13.26;74.18;101146.06;5087879;28;19938;-50
2023/01/11 12:08:45;;;;;;;;;;;;;;;13.27;72.75;101150.38;5084446;28;19965;-50
2023/01/11 12:11:15;;;;;;;;;;;;;;;13.28;73.25;101148.69;5085488;28;19912;-50
2023/01/11 12:13:41;;;;;;;;;;;;;;;13.26;72.49;101151.22;5083193;28;19916;-49
2023/01/11 12:16:19;;;;;;;;;;;;;;;13.21;71.88;101146.81;5085642;28;19924;-47
2023/01/11 12:18:44;;;;;;;;;;;;;;;13.12;71.35;101152.63;5087449;28;19920;-49
2023/01/11 12:21:23;;;;;;;;;;;;;;;13.06;73.18;101155.94;5086179;28;19926;-51
2023/01/11 12:24:08;;;;;;;;;;;;;;;13.07;73.44;101161.97;5087128;28;19915;-52
2023/01/11 12:26:56;;;;;;;;;;;;;;;13.10;73.77;101167.19;5084536;28;19965;-53
2023/01/11 12:29:21;;;;;;;;;;;;;;;13.09;73.51;101175.78;5087397;28;20352;-52
2023/01/11 12:31:50;;;;;;;;;;;;;;;13.08;73.23;101174.03;5086787;28;19930;-49
2023/01/11 12:34:34;;;;;;;;;;;;;;;13.04;69.68;101178.28;5085272;28;19986;-53
2023/01/11 12:37:19;;;;;;;;;;;;;;;12.95;69.94;101177.19;5088191;28;20409;-53
2023/01/11 12:39:51;;;;;;;;;;;;;;;12.91;70.19;101178.81;5082804;28;20384;-49
2023/01/11 12:42:16;;;;;;;;;;;;;;;12.91;69.29;101178.81;5083875;28;20022;-53
2023/01/11 12:44:46;;;;;;;;;;;;;;;12.87;68.83;101166.69;5090879;28;20566;-49
2023/01/11 12:47:14;;;;;;;;;;;;;;;12.88;69.79;101168.41;5085532;28;20384;-49
2023/01/11 12:49:46;;;;;;;;;;;;;;;12.87;67.56;101172.72;5084016;28;21382;-53
2023/01/11 12:52:24;;;;;;;;;;;;;;;12.85;69.26;101182.09;5082546;28;19924;-50
2023/01/11 12:55:00;;;;;;;;;;;;;;;12.82;67.55;101176.88;5087917;28;20431;-52
2023/01/11 12:57:25;;;;;;;;;;;;;;;12.78;68.91;101167.31;5083787;28;19948;-49
2023/01/11 12:59:51;;;;;;;;;;;;;;;12.78;69.03;101164.72;5082817;28;19963;-52
2023/01/11 13:02:16;;;;;;;;;;;;;;;12.82;69.46;101178.59;5083702;28;20491;-53
2023/01/11 13:04:49;;;;;;;;;;;;;;;12.83;69.24;101170.00;5082910;28;20459;-48